Welcome to La Porte Aviation Services!

An aviation adventure awaits

Current Weather Conditions

Available data for KPPO from the past 2 hours
LA PORTE, IN
Metar
KPPO 220755Z AUTO 07005KT 10SM SCT120 07/M02 A3034 RMK AO2 T00651017

07:55 UTC

Wind: 70° 5kt

Visibility: 10 SM

Sky: SCT 12000 ft

Temp: 7 deg C / 44.6 deg F

Dewpoint: -2 deg C / 28.4 deg F

Pressure: 30.34 inHg

Connect with us on Facebook!

Facebook By Weblizar Powered By Weblizar